createdAt,value
2022-12-03T00:11:01.377Z,20.25
2022-12-03T00:13:28.301Z,18.45
2022-12-03T00:15:55.183Z,18.02
2022-12-03T00:18:22.078Z,18.88
2022-12-03T00:20:49.029Z,20.70
2022-12-03T00:23:15.890Z,20.67
2022-12-03T00:25:45.310Z,23.00
2022-12-03T00:28:15.182Z,21.17
2022-12-03T00:44:13.733Z,18.08
2022-12-03T00:52:02.154Z,17.08
2022-12-03T00:54:32.091Z,17.35
2022-12-03T00:56:59.511Z,16.42
2022-12-03T00:59:29.639Z,18.20
2022-12-03T01:01:57.132Z,16.60
2022-12-03T01:04:24.121Z,19.90
2022-12-03T01:06:50.942Z,18.63
2022-12-03T01:09:17.650Z,20.95
2022-12-03T01:11:44.291Z,14.25
2022-12-03T01:14:20.168Z,14.55
2022-12-03T01:16:49.985Z,18.70
2022-12-03T01:19:18.403Z,15.88
2022-12-03T01:21:50.792Z,17.13
2022-12-03T01:24:19.894Z,16.50
2022-12-03T01:26:47.702Z,16.38
2022-12-03T01:29:14.922Z,13.98
2022-12-03T01:32:00.677Z,16.42
2022-12-03T01:34:27.956Z,14.52
2022-12-03T01:36:55.281Z,15.93
2022-12-03T01:39:22.526Z,16.05
2022-12-03T01:41:53.122Z,15.55
2022-12-03T01:44:28.300Z,12.57
2022-12-03T01:47:00.778Z,14.65
2022-12-03T01:49:56.227Z,14.80
2022-12-03T01:52:31.252Z,16.75
2022-12-03T01:55:04.275Z,15.80
2022-12-03T01:57:47.165Z,14.63
2022-12-03T02:00:26.863Z,15.15
2022-12-03T02:03:21.101Z,15.05
2022-12-03T02:05:48.089Z,15.82
2022-12-03T02:08:34.526Z,18.05
2022-12-03T02:11:42.087Z,19.90
2022-12-03T02:14:21.868Z,14.88
2022-12-03T02:16:48.994Z,16.42
2022-12-03T02:19:27.819Z,18.58
2022-12-03T02:22:26.204Z,19.77
2022-12-03T02:25:03.744Z,18.77
2022-12-03T02:27:30.421Z,19.73
2022-12-03T02:29:57.332Z,18.65
2022-12-03T02:32:24.173Z,19.10
2022-12-03T02:34:52.068Z,18.60
2022-12-03T02:37:32.660Z,18.25
2022-12-03T02:40:11.725Z,15.20
2022-12-03T02:42:39.679Z,17.00
2022-12-03T02:45:28.717Z,17.48
2022-12-03T02:48:18.254Z,18.30
2022-12-03T02:50:55.478Z,21.63
2022-12-03T02:53:36.439Z,18.23
2022-12-03T02:56:05.557Z,22.17
2022-12-03T02:58:37.429Z,16.52
2022-12-03T03:01:05.536Z,16.05
2022-12-03T03:03:37.406Z,19.13
2022-12-03T03:06:10.899Z,15.90
2022-12-03T03:08:40.250Z,18.13
2022-12-03T03:11:07.035Z,19.13
2022-12-03T03:13:39.168Z,16.90
2022-12-03T03:16:10.846Z,16.73
2022-12-03T03:18:38.015Z,18.33
2022-12-03T03:21:06.225Z,16.35
2022-12-03T03:23:38.019Z,17.70
2022-12-03T03:26:08.876Z,16.58
2022-12-03T03:28:42.632Z,15.25
2022-12-03T03:31:19.439Z,15.05
2022-12-03T03:33:51.745Z,16.17
2022-12-03T03:36:20.135Z,15.13
2022-12-03T03:38:50.651Z,18.73
2022-12-03T03:41:21.993Z,14.95
2022-12-03T03:43:50.494Z,12.30
2022-12-03T03:46:21.839Z,14.13
2022-12-03T03:48:51.817Z,12.10
2022-12-03T03:51:20.408Z,15.63
2022-12-03T03:53:52.113Z,17.23
2022-12-03T03:56:22.111Z,16.42
2022-12-03T03:58:49.298Z,15.55
2022-12-03T04:01:18.568Z,14.13
2022-12-03T04:03:46.114Z,14.80
2022-12-03T04:06:12.971Z,14.55
2022-12-03T04:08:39.584Z,14.27
2022-12-03T04:11:25.255Z,15.15
2022-12-03T04:13:52.066Z,12.77
2022-12-03T04:16:21.679Z,15.35
2022-12-03T04:18:48.480Z,14.70
2022-12-03T04:21:39.757Z,15.85
2022-12-03T04:24:10.412Z,13.85
2022-12-03T04:26:56.089Z,16.38
2022-12-03T04:29:22.933Z,15.77
2022-12-03T04:32:08.551Z,14.77
2022-12-03T04:34:57.185Z,15.60
2022-12-03T04:37:23.904Z,16.10
2022-12-03T04:39:50.746Z,16.60
2022-12-03T04:42:17.508Z,13.18
2022-12-03T04:44:44.490Z,14.68
2022-12-03T04:47:21.614Z,14.98
2022-12-03T04:49:51.766Z,16.55
2022-12-03T04:52:21.114Z,16.95
2022-12-03T04:54:48.206Z,17.08
2022-12-03T04:57:15.064Z,17.10
2022-12-03T04:59:41.797Z,22.13
2022-12-03T05:02:09.036Z,15.93
2022-12-03T05:04:38.986Z,15.70
2022-12-03T05:07:05.719Z,18.10
2022-12-03T05:09:34.524Z,16.65
2022-12-03T05:12:01.349Z,18.92
2022-12-03T05:14:28.133Z,19.20
2022-12-03T05:16:54.987Z,20.77
2022-12-03T05:19:41.779Z,19.30
2022-12-03T05:22:08.470Z,18.83
2022-12-03T05:24:35.178Z,21.08
2022-12-03T05:27:10.856Z,20.45
2022-12-03T05:32:21.936Z,19.45
2022-12-03T05:34:48.708Z,20.00
2022-12-03T05:37:15.711Z,21.15
2022-12-03T05:56:18.912Z,20.65
2022-12-03T05:58:48.841Z,17.52
2022-12-03T06:03:57.056Z,22.63
2022-12-03T06:41:23.925Z,22.27
2022-12-03T06:43:50.830Z,16.92
2022-12-03T06:46:17.736Z,20.50
2022-12-03T06:59:36.838Z,18.58
2022-12-03T09:11:24.043Z,23.83
2022-12-03T09:19:16.910Z,25.83
2022-12-03T09:24:25.410Z,25.00
2022-12-03T09:29:33.084Z,20.90
2022-12-03T10:21:38.972Z,26.40
2022-12-03T10:24:28.653Z,30.33
2022-12-03T10:27:19.645Z,26.80
2022-12-03T10:30:02.193Z,24.58
2022-12-03T10:32:51.646Z,28.63
2022-12-03T10:35:36.735Z,26.50
2022-12-03T10:41:00.149Z,24.02
2022-12-03T10:43:26.905Z,24.08
2022-12-03T10:46:03.759Z,24.70
2022-12-03T10:48:31.419Z,26.48
2022-12-03T10:51:27.511Z,28.60
2022-12-03T10:53:54.326Z,26.65
2022-12-03T10:56:27.420Z,26.23
2022-12-03T10:58:55.499Z,25.80
2022-12-03T11:01:26.436Z,26.65
2022-12-03T11:04:02.899Z,25.13
2022-12-03T11:06:34.861Z,26.60
2022-12-03T11:09:08.779Z,31.85
2022-12-03T11:11:36.442Z,29.35
2022-12-03T11:14:07.787Z,25.85
2022-12-03T11:16:42.700Z,26.35
2022-12-03T11:19:44.840Z,22.38
2022-12-03T11:22:11.883Z,20.85
2022-12-03T11:24:41.473Z,26.42
2022-12-03T11:27:20.637Z,24.83
2022-12-03T11:30:06.352Z,29.45
2022-12-03T11:32:40.319Z,27.88
2022-12-03T11:35:57.640Z,29.35
2022-12-03T11:38:53.599Z,29.10
2022-12-03T11:41:35.035Z,31.33
2022-12-03T11:55:37.928Z,27.92
2022-12-03T12:04:43.164Z,27.73
2022-12-03T12:36:16.802Z,26.27
2022-12-03T12:55:04.698Z,44.92
2022-12-03T12:57:34.201Z,33.95
2022-12-03T13:00:05.476Z,26.40
2022-12-03T13:40:10.390Z,31.20
2022-12-03T13:54:31.263Z,27.20
2022-12-03T14:40:21.664Z,28.85
2022-12-03T16:41:22.981Z,37.15
2022-12-03T16:43:49.595Z,33.47
2022-12-03T17:10:30.681Z,33.33
2022-12-03T18:30:52.960Z,33.45
2022-12-03T18:33:22.701Z,32.42
2022-12-03T19:03:07.576Z,22.02
2022-12-03T19:48:52.614Z,23.35
2022-12-03T19:51:38.508Z,23.77
2022-12-03T20:12:55.342Z,33.40
2022-12-03T20:50:36.645Z,29.63
2022-12-03T20:53:23.820Z,31.05
2022-12-03T20:56:00.747Z,30.20
2022-12-03T20:58:29.389Z,25.17
2022-12-03T21:00:56.695Z,28.50
2022-12-03T21:03:23.468Z,32.22
2022-12-03T21:05:51.411Z,35.55
2022-12-03T21:08:33.987Z,31.40
2022-12-03T21:11:15.821Z,35.20
2022-12-03T21:13:44.066Z,30.00
2022-12-03T21:16:39.395Z,27.33
2022-12-03T21:19:08.859Z,29.38
2022-12-03T21:21:36.367Z,27.75
2022-12-03T21:24:03.333Z,34.92
2022-12-03T21:26:30.030Z,27.17
2022-12-03T21:28:56.637Z,28.45
2022-12-03T21:31:34.228Z,28.50
2022-12-03T21:34:02.039Z,30.40
2022-12-03T21:36:34.293Z,23.90
2022-12-03T21:39:00.933Z,29.63
2022-12-03T21:41:27.660Z,27.25
2022-12-03T21:43:54.314Z,32.17
2022-12-03T21:47:09.748Z,28.98
2022-12-03T21:49:07.870Z,28.95
2022-12-03T21:51:34.751Z,29.63
2022-12-03T21:54:01.558Z,30.15
2022-12-03T21:56:36.732Z,32.10
2022-12-03T21:59:04.304Z,28.63
2022-12-03T22:01:30.987Z,26.30
2022-12-03T22:03:57.612Z,30.08
2022-12-03T22:06:24.446Z,34.45
2022-12-03T22:08:51.264Z,37.40
2022-12-03T22:11:23.628Z,37.30
2022-12-03T22:13:54.432Z,35.47
2022-12-03T22:16:22.387Z,34.40
2022-12-03T22:18:49.821Z,37.25
2022-12-03T22:21:20.359Z,35.60
2022-12-03T22:23:49.837Z,36.75
2022-12-03T22:26:18.933Z,35.38
2022-12-03T22:28:50.450Z,37.03
2022-12-03T22:31:18.705Z,39.33
2022-12-03T22:33:49.609Z,34.08
2022-12-03T22:36:21.357Z,38.00
2022-12-03T22:38:51.001Z,33.28
2022-12-03T22:41:19.439Z,36.17
2022-12-03T22:43:48.691Z,35.88
2022-12-03T22:46:17.604Z,37.50
2022-12-03T22:48:49.498Z,38.60
2022-12-03T22:51:26.778Z,26.13
2022-12-03T22:54:00.026Z,37.60
2022-12-03T22:56:29.683Z,37.15
2022-12-03T22:58:57.157Z,39.28
2022-12-03T23:01:37.556Z,34.88
2022-12-03T23:04:07.369Z,35.17
2022-12-03T23:06:36.798Z,37.55
2022-12-03T23:09:06.905Z,34.45
2022-12-03T23:11:38.377Z,35.58
2022-12-03T23:14:05.089Z,39.92
2022-12-03T23:16:34.137Z,37.00
2022-12-03T23:19:05.551Z,37.70
2022-12-03T23:21:35.568Z,39.58
2022-12-03T23:24:09.312Z,36.30
2022-12-03T23:26:41.738Z,33.05
2022-12-03T23:29:08.762Z,35.28
2022-12-03T23:31:36.217Z,37.38
2022-12-03T23:34:04.006Z,37.42
2022-12-03T23:36:33.907Z,35.65
2022-12-03T23:39:01.010Z,40.65
2022-12-03T23:41:28.388Z,36.58
2022-12-03T23:43:56.335Z,34.58
2022-12-03T23:46:27.414Z,37.33
2022-12-03T23:48:54.957Z,38.13
2022-12-03T23:51:24.530Z,40.40
2022-12-03T23:53:54.202Z,39.67
2022-12-03T23:56:29.548Z,37.38
2022-12-03T23:58:59.479Z,40.15
